Time;durP1;ratioP1;P1;durP2;ratioP2;P2;SDS_P1;SDS_P2;PMS_P1;PMS_P2;Temp;Humidity;BMP_temperature;BMP_pressure;BME280_temperature;BME280_humidity;BME280_pressure;Samples;Min_cycle;Max_cycle;Signal;HPM_P1;HPM_P2
2023/09/06 00:00:32;;;;;;;10.50;5.20;;;;;;;17.91;70.89;99765.80;79374;1300;3012815;-72
2023/09/06 00:03:00;;;;;;;17.40;5.60;;;;;;;17.85;71.49;99766.52;78182;1298;3049285;-70
2023/09/06 00:05:29;;;;;;;11.30;5.30;;;;;;;17.77;72.19;99763.15;79349;1296;3019398;-72
2023/09/06 00:07:56;;;;;;;12.70;4.80;;;;;;;17.68;72.32;99772.08;79387;1298;3011871;-71
2023/09/06 00:10:23;;;;;;;15.70;4.30;;;;;;;17.69;72.93;99765.06;78161;1294;3055538;-70
2023/09/06 00:12:50;;;;;;;12.30;4.20;;;;;;;18.25;71.16;99759.67;79447;1297;3018634;-73
2023/09/06 00:15:18;;;;;;;7.60;4.80;;;;;;;18.74;69.32;99763.33;79419;1295;3013485;-73
2023/09/06 00:17:46;;;;;;;10.20;5.20;;;;;;;18.70;68.93;99763.31;78226;1298;3048876;-73
2023/09/06 00:20:22;;;;;;;11.20;5.40;;;;;;;18.48;70.07;99761.23;79464;1299;3013656;-69
2023/09/06 00:22:58;;;;;;;10.20;5.80;;;;;;;18.28;70.50;99756.98;78260;1300;3052357;-69
2023/09/06 00:25:27;;;;;;;10.90;5.80;;;;;;;18.09;70.94;99757.41;78998;1299;3011859;-72
2023/09/06 00:27:55;;;;;;;13.00;6.40;;;;;;;17.95;71.88;99755.62;79491;1294;3013005;-75
2023/09/06 00:30:21;;;;;;;17.60;6.70;;;;;;;17.80;72.48;99762.02;79547;1298;3011609;-75
2023/09/06 00:32:52;;;;;;;9.90;6.50;;;;;;;17.73;73.19;99767.32;78298;1294;3056631;-74
2023/09/06 00:35:20;;;;;;;8.90;6.40;;;;;;;17.67;73.01;99772.69;79549;1300;3011700;-75
2023/09/06 00:37:48;;;;;;;6.40;4.30;;;;;;;17.59;73.80;99768.20;78276;1295;3027857;-74
2023/09/06 00:40:19;;;;;;;10.90;5.20;;;;;;;18.06;72.40;99763.35;79473;1300;3013781;-73
2023/09/06 00:42:59;;;;;;;9.50;5.80;;;;;;;18.47;70.66;99761.85;78248;1299;3052206;-73
2023/09/06 00:45:36;;;;;;;8.90;6.00;;;;;;;18.49;70.19;99763.83;78264;1295;3069882;-72
2023/09/06 00:48:05;;;;;;;12.10;7.20;;;;;;;18.33;70.63;99762.52;78195;1295;3053026;-75
2023/09/06 00:50:36;;;;;;;10.90;6.90;;;;;;;18.19;71.05;99757.77;79563;1294;3013078;-75
2023/09/06 00:53:07;;;;;;;12.30;7.40;;;;;;;18.06;71.58;99757.85;78266;1300;3052911;-74
2023/09/06 00:55:37;;;;;;;11.50;7.50;;;;;;;17.88;71.95;99755.98;79441;1298;3011514;-74
2023/09/06 00:58:05;;;;;;;12.50;8.20;;;;;;;17.65;73.49;99763.11;78288;1300;3052656;-74
2023/09/06 01:00:33;;;;;;;13.70;7.60;;;;;;;17.54;74.19;99765.77;79513;1299;3013105;-71
2023/09/06 01:02:59;;;;;;;14.00;6.80;;;;;;;17.53;74.47;99768.91;79556;1298;3011993;-72
2023/09/06 01:05:28;;;;;;;13.00;6.90;;;;;;;17.91;73.37;99763.36;78285;1299;3029004;-73
2023/09/06 01:07:57;;;;;;;9.60;6.10;;;;;;;18.30;72.13;99760.36;79533;1295;3013334;-73
2023/09/06 01:10:26;;;;;;;13.20;7.10;;;;;;;18.23;71.81;99763.05;78932;1295;3011955;-71
2023/09/06 01:12:55;;;;;;;14.10;7.20;;;;;;;18.03;72.66;99762.70;79450;1300;3012996;-71
2023/09/06 01:15:22;;;;;;;12.80;7.30;;;;;;;17.80;73.69;99763.41;79485;1300;3011208;-74
2023/09/06 01:17:50;;;;;;;13.50;7.80;;;;;;;17.62;74.13;99769.33;78212;1299;3069352;-74
2023/09/06 01:20:38;;;;;;;13.00;8.00;;;;;;;17.50;74.34;99768.27;79555;1294;3014048;-69
2023/09/06 01:23:20;;;;;;;12.80;7.90;;;;;;;17.34;75.53;99765.33;78200;1294;3049324;-71
2023/09/06 01:25:48;;;;;;;13.70;6.40;;;;;;;17.36;75.58;99766.77;78217;1294;3054204;-72
2023/09/06 01:28:14;;;;;;;9.60;6.10;;;;;;;17.94;73.81;99760.80;79512;1300;3018456;-72
2023/09/06 01:30:41;;;;;;;12.50;7.60;;;;;;;18.27;71.65;99762.39;79414;1295;3013531;-72
2023/09/06 01:33:10;;;;;;;10.50;7.50;;;;;;;18.28;71.73;99758.54;78269;1299;3068010;-71
2023/09/06 01:35:36;;;;;;;16.40;8.20;;;;;;;18.02;72.65;99759.79;79447;1297;3013262;-71
2023/09/06 01:38:03;;;;;;;12.00;8.30;;;;;;;17.83;73.24;99756.91;79580;1297;3011534;-70
2023/09/06 01:40:31;;;;;;;13.10;8.20;;;;;;;17.60;74.63;99763.48;78129;1295;3026200;-69
2023/09/06 01:42:58;;;;;;;16.10;7.90;;;;;;;17.42;75.15;99765.36;79502;1298;3013299;-67
2023/09/06 01:45:27;;;;;;;12.50;7.90;;;;;;;17.30;75.86;99766.56;79497;1294;3011671;-69
2023/09/06 01:47:55;;;;;;;11.00;6.60;;;;;;;17.26;76.39;99767.09;78274;1300;3068504;-70
2023/09/06 01:50:21;;;;;;;12.10;6.50;;;;;;;17.69;75.06;99769.27;79389;1294;3011845;-72
2023/09/06 01:52:49;;;;;;;12.70;6.90;;;;;;;18.07;73.10;99761.44;79446;1294;3011609;-69
2023/09/06 01:55:16;;;;;;;11.90;7.40;;;;;;;18.06;72.80;99760.48;78359;1300;3053571;-72
2023/09/06 01:57:44;;;;;;;9.70;6.40;;;;;;;17.91;73.68;99765.62;79456;1300;3013480;-68
2023/09/06 02:00:31;;;;;;;10.00;7.20;;;;;;;17.75;74.27;99763.45;79399;1295;3011814;-71
2023/09/06 02:02:59;;;;;;;12.60;8.00;;;;;;;17.54;75.13;99762.94;78154;1295;3068979;-73
2023/09/06 02:05:26;;;;;;;10.70;6.80;;;;;;;17.39;75.67;99766.33;79542;1295;3013268;-71
2023/09/06 02:07:52;;;;;;;9.10;6.70;;;;;;;17.30;75.95;99767.09;79347;1295;3011807;-70
2023/09/06 02:10:20;;;;;;;7.40;5.10;;;;;;;17.19;76.80;99768.92;78190;1300;3052646;-72
2023/09/06 02:12:47;;;;;;;9.20;5.10;;;;;;;17.71;75.32;99766.13;79412;1297;3018608;-71
2023/09/06 02:15:14;;;;;;;14.50;6.10;;;;;;;18.17;73.17;99756.90;79511;1295;3011791;-70
2023/09/06 02:17:42;;;;;;;9.10;5.70;;;;;;;18.16;72.97;99762.06;78100;1294;3069038;-70
2023/09/06 02:20:17;;;;;;;11.20;6.10;;;;;;;17.91;73.48;99758.39;79578;1297;3013486;-71
2023/09/06 02:22:57;;;;;;;11.10;6.00;;;;;;;17.74;74.60;99761.11;78160;1294;3051337;-71
2023/09/06 02:25:29;;;;;;;12.10;6.50;;;;;;;17.56;75.50;99762.42;78140;1300;3053696;-69
2023/09/06 02:27:57;;;;;;;13.60;6.50;;;;;;;17.45;75.54;99761.98;79560;1297;3011841;-73
2023/09/06 02:30:25;;;;;;;9.40;5.60;;;;;;;17.33;75.99;99757.31;78206;1301;3051956;-72
2023/09/06 02:32:54;;;;;;;10.90;4.90;;;;;;;17.25;76.77;99762.75;79556;1298;3013295;-71
2023/09/06 02:35:20;;;;;;;10.30;5.10;;;;;;;17.78;75.35;99761.45;79368;1300;3011747;-71
2023/09/06 02:37:48;;;;;;;14.30;5.80;;;;;;;18.19;73.29;99760.45;78211;1295;3056095;-72
2023/09/06 02:40:20;;;;;;;8.80;5.30;;;;;;;18.32;72.60;99762.09;79650;1300;3013341;-71
2023/09/06 02:42:49;;;;;;;8.40;5.40;;;;;;;18.17;72.63;99763.29;78460;1300;3051784;-69
2023/09/06 02:45:15;;;;;;;14.00;5.80;;;;;;;17.90;73.83;99763.24;79672;1300;3013747;-72
2023/09/06 02:47:49;;;;;;;12.20;5.80;;;;;;;17.74;74.44;99766.91;79388;1299;3012932;-70
2023/09/06 02:50:22;;;;;;;14.40;6.40;;;;;;;17.55;74.97;99773.88;78249;1300;3051831;-71
2023/09/06 02:52:52;;;;;;;14.60;6.80;;;;;;;17.42;75.54;99779.92;79449;1300;3011371;-72
2023/09/06 02:55:20;;;;;;;7.40;5.10;;;;;;;17.25;76.67;99783.77;78290;1295;3047137;-73
2023/09/06 02:57:49;;;;;;;13.60;5.40;;;;;;;17.62;75.72;99782.30;79424;1299;3012958;-73
2023/09/06 03:00:23;;;;;;;12.30;6.00;;;;;;;17.90;74.50;99790.38;79347;1300;3011790;-72
2023/09/06 03:03:05;;;;;;;12.90;5.40;;;;;;;17.87;74.65;99785.00;78269;1299;3052791;-72
2023/09/06 03:05:42;;;;;;;12.40;6.00;;;;;;;17.75;75.05;99793.59;78234;1298;3068427;-70
2023/09/06 03:08:12;;;;;;;9.30;6.00;;;;;;;17.57;75.38;99788.92;78272;1299;3052368;-70
2023/09/06 03:10:44;;;;;;;8.60;6.40;;;;;;;17.32;76.28;99798.09;79384;1297;3013746;-71
2023/09/06 03:13:12;;;;;;;12.30;8.60;;;;;;;17.08;77.72;99797.22;78276;1298;3053511;-73
2023/09/06 03:15:43;;;;;;;12.50;6.40;;;;;;;16.92;78.83;99799.23;79469;1300;3013110;-73
2023/09/06 03:18:11;;;;;;;10.90;6.60;;;;;;;17.29;77.63;99796.27;78354;1298;3053851;-69
2023/09/06 03:20:44;;;;;;;12.90;7.10;;;;;;;17.50;76.42;99797.30;79532;1299;3013462;-72
2023/09/06 03:23:17;;;;;;;15.30;7.60;;;;;;;17.35;76.74;99798.70;78305;1294;3057247;-73
2023/09/06 03:25:49;;;;;;;;;;;;;;;17.26;76.97;99799.45;79505;1295;3011860;-71
2023/09/06 03:28:20;;;;;;;12.30;7.00;;;;;;;17.10;77.59;99804.71;78289;1298;3052667;-67
2023/09/06 03:30:48;;;;;;;16.00;6.80;;;;;;;16.91;78.63;99802.00;79370;1299;3012996;-72
2023/09/06 03:33:16;;;;;;;8.50;5.00;;;;;;;16.86;79.09;99806.45;78213;1299;3052526;-73
2023/09/06 03:35:48;;;;;;;12.90;5.50;;;;;;;17.34;77.59;99806.05;79852;1299;3012074;-76
2023/09/06 03:38:17;;;;;;;10.10;6.00;;;;;;;17.65;76.05;99812.14;78262;1301;3069825;-76
2023/09/06 03:40:44;;;;;;;13.80;5.70;;;;;;;17.76;75.66;99809.46;79635;1294;3013307;-75
2023/09/06 03:43:19;;;;;;;15.10;7.40;;;;;;;17.63;75.99;99815.53;79524;1299;3011884;-75
2023/09/06 03:45:53;;;;;;;16.40;6.80;;;;;;;17.40;76.69;99811.25;78381;1300;3054989;-77
2023/09/06 03:48:22;;;;;;;13.90;6.60;;;;;;;17.36;76.65;99809.48;79430;1300;3013226;-77
2023/09/06 03:50:53;;;;;;;12.70;6.60;;;;;;;17.27;77.06;99814.40;78536;1299;3052209;-77
2023/09/06 03:53:19;;;;;;;8.50;5.10;;;;;;;17.21;77.67;99816.55;79625;1299;3013115;-74
2023/09/06 03:55:50;;;;;;;12.20;5.90;;;;;;;17.77;76.06;99812.95;78912;1297;3011668;-76
2023/09/06 03:58:17;;;;;;;13.70;5.70;;;;;;;18.23;73.92;99812.20;79487;1298;3013003;-75
2023/09/06 04:00:44;;;;;;;11.50;6.30;;;;;;;18.21;73.28;99816.79;79444;1295;3013611;-74
2023/09/06 04:03:22;;;;;;;15.30;6.40;;;;;;;18.01;73.88;99821.55;78391;1295;3053427;-76
2023/09/06 04:05:53;;;;;;;10.30;6.00;;;;;;;17.90;74.18;99824.55;79574;1300;3013922;-74
2023/09/06 04:08:28;;;;;;;15.70;6.80;;;;;;;17.79;75.05;99829.24;78512;1294;3053085;-76
2023/09/06 04:10:57;;;;;;;11.20;6.60;;;;;;;17.66;75.77;99835.84;79069;1300;3011240;-75
2023/09/06 04:13:23;;;;;;;9.50;5.80;;;;;;;17.56;76.34;99836.23;79717;1294;3013805;-76
2023/09/06 04:15:50;;;;;;;8.90;4.90;;;;;;;17.57;76.20;99835.67;79790;1295;3012116;-77
2023/09/06 04:18:18;;;;;;;9.00;5.20;;;;;;;18.10;74.49;99838.65;78365;1299;3026664;-76
2023/09/06 04:20:46;;;;;;;9.50;5.40;;;;;;;18.66;72.53;99833.66;79411;1297;3013895;-76
2023/09/06 04:23:17;;;;;;;9.90;5.60;;;;;;;18.74;71.64;99837.29;79052;1299;3014045;-74
2023/09/06 04:25:47;;;;;;;12.70;6.90;;;;;;;18.68;71.65;99837.91;79500;1300;3011607;-75
2023/09/06 04:28:21;;;;;;;12.80;6.60;;;;;;;18.58;71.83;99842.52;78365;1301;3052916;-69
2023/09/06 04:30:49;;;;;;;10.50;6.20;;;;;;;18.40;72.28;99844.89;79629;1300;3013843;-74
2023/09/06 04:33:20;;;;;;;12.20;6.60;;;;;;;18.22;73.26;99850.92;78246;1299;3067874;-77
2023/09/06 04:35:56;;;;;;;10.10;6.70;;;;;;;18.17;73.34;99849.44;78814;1296;3013171;-75
2023/09/06 04:38:23;;;;;;;12.60;6.50;;;;;;;18.12;73.42;99851.96;79573;1300;3013200;-75
2023/09/06 04:40:54;;;;;;;12.10;5.10;;;;;;;18.08;73.72;99851.19;78353;1296;3048351;-74
2023/09/06 04:43:22;;;;;;;7.70;4.60;;;;;;;18.67;72.38;99854.11;79540;1300;3011590;-73
2023/09/06 04:45:49;;;;;;;12.40;5.60;;;;;;;19.25;70.06;99852.17;79445;1294;3011222;-75
2023/09/06 04:48:17;;;;;;;11.20;6.30;;;;;;;19.40;69.16;99849.86;78286;1300;3053187;-73
2023/09/06 04:50:47;;;;;;;13.50;6.60;;;;;;;19.24;69.10;99850.13;79464;1294;3011714;-74
2023/09/06 04:53:19;;;;;;;16.30;6.70;;;;;;;18.95;69.89;99853.29;78371;1304;3028588;-71
2023/09/06 04:55:49;;;;;;;15.00;7.40;;;;;;;18.77;70.54;99850.89;79449;1299;3011465;-72
2023/09/06 04:58:18;;;;;;;11.10;6.90;;;;;;;18.67;71.18;99851.44;78343;1298;3049319;-73
2023/09/06 05:00:47;;;;;;;17.40;7.00;;;;;;;18.67;71.17;99850.58;79523;1300;3015421;-72
2023/09/06 05:03:17;;;;;;;12.80;7.20;;;;;;;18.59;71.81;99852.15;79430;1295;3013185;-74
2023/09/06 05:05:46;;;;;;;12.50;6.80;;;;;;;18.61;71.94;99853.02;78258;1300;3052599;-74
2023/09/06 05:08:12;;;;;;;14.10;6.80;;;;;;;18.68;71.71;99852.77;79405;1300;3013422;-74
2023/09/06 05:10:39;;;;;;;11.30;4.60;;;;;;;18.73;71.65;99857.27;79446;1298;3012946;-73
2023/09/06 05:13:07;;;;;;;10.40;4.90;;;;;;;19.35;70.44;99858.13;78212;1299;3048879;-74
2023/09/06 05:15:37;;;;;;;11.10;5.80;;;;;;;19.95;68.30;99859.13;79546;1298;3013738;-71
2023/09/06 05:18:06;;;;;;;14.90;6.20;;;;;;;20.07;67.24;99863.23;78450;1301;3026442;-75
2023/09/06 05:20:35;;;;;;;11.20;6.60;;;;;;;19.95;67.29;99865.42;79634;1299;3013171;-74
2023/09/06 05:23:11;;;;;;;11.50;7.10;;;;;;;19.75;67.97;99866.66;78198;1300;3068934;-74
2023/09/06 05:25:39;;;;;;;14.20;6.40;;;;;;;19.62;68.45;99865.26;79533;1295;3013515;-74
2023/09/06 05:28:12;;;;;;;14.10;6.90;;;;;;;19.60;68.67;99869.02;78319;1294;3056327;-70
2023/09/06 05:30:41;;;;;;;16.80;7.70;;;;;;;19.52;68.86;99870.13;79528;1299;3011951;-72
2023/09/06 05:33:11;;;;;;;16.40;7.30;;;;;;;19.40;69.45;99871.75;78279;1295;3052952;-71
2023/09/06 05:35:40;;;;;;;14.90;7.10;;;;;;;19.22;70.38;99875.13;79449;1295;3013308;-73
2023/09/06 05:38:09;;;;;;;12.70;7.10;;;;;;;19.21;70.55;99882.20;79071;1298;3011740;-73
2023/09/06 05:40:40;;;;;;;12.60;7.40;;;;;;;19.24;70.37;99881.30;79550;1300;3011888;-72
2023/09/06 05:43:09;;;;;;;12.80;7.00;;;;;;;19.29;70.09;99879.29;78240;1301;3069764;-74
2023/09/06 05:45:36;;;;;;;16.60;6.80;;;;;;;19.31;70.32;99876.10;79620;1296;3014992;-74
2023/09/06 05:48:03;;;;;;;11.00;5.90;;;;;;;19.36;70.32;99881.52;79442;1294;3011672;-74
2023/09/06 05:50:32;;;;;;;14.30;6.00;;;;;;;19.89;68.71;99882.05;78429;1294;3052301;-72
2023/09/06 05:52:59;;;;;;;11.20;6.40;;;;;;;20.46;67.31;99879.89;79516;1297;3013853;-73
2023/09/06 05:55:26;;;;;;;15.40;7.00;;;;;;;20.61;66.27;99884.13;79660;1297;3011811;-71
2023/09/06 05:57:55;;;;;;;22.50;7.90;;;;;;;20.61;66.37;99884.83;78255;1294;3068389;-73
2023/09/06 06:00:24;;;;;;;15.30;7.00;;;;;;;20.48;66.41;99880.45;79817;1295;3016125;-74
2023/09/06 06:02:58;;;;;;;13.80;7.20;;;;;;;20.46;66.44;99884.90;78443;1296;3048140;-75
2023/09/06 06:05:25;;;;;;;12.90;7.60;;;;;;;20.30;66.92;99887.13;79739;1299;3012902;-74
2023/09/06 06:07:53;;;;;;;12.40;7.80;;;;;;;20.09;67.82;99889.83;78336;1298;3050588;-75
2023/09/06 06:10:20;;;;;;;14.60;7.80;;;;;;;19.90;68.37;99888.85;79893;1294;3012837;-72
2023/09/06 06:12:46;;;;;;;14.40;8.60;;;;;;;19.89;68.81;99888.63;79572;1298;3011760;-74
2023/09/06 06:15:15;;;;;;;17.20;8.40;;;;;;;19.91;68.71;99890.73;78376;1298;3026183;-77
2023/09/06 06:17:42;;;;;;;18.70;7.70;;;;;;;19.91;68.72;99891.32;79651;1292;3013580;-74
2023/09/06 06:20:12;;;;;;;17.10;8.60;;;;;;;19.87;68.83;99891.09;79648;1293;3011954;-74
2023/09/06 06:22:40;;;;;;;15.80;7.70;;;;;;;19.93;68.84;99894.66;78434;1297;3048943;-71
2023/09/06 06:25:08;;;;;;;17.60;8.10;;;;;;;19.98;68.54;99894.23;79814;1295;3011754;-74
2023/09/06 06:27:35;;;;;;;16.50;7.70;;;;;;;19.89;69.00;99890.39;79553;1296;3011574;-74
2023/09/06 06:30:07;;;;;;;15.60;8.20;;;;;;;19.99;68.87;99890.21;78495;1298;3051911;-76
2023/09/06 06:32:34;;;;;;;14.60;8.00;;;;;;;20.02;68.81;99888.83;79665;1296;3012994;-73
2023/09/06 06:35:05;;;;;;;21.30;8.20;;;;;;;20.02;68.64;99888.30;78460;1298;3026205;-75
2023/09/06 06:37:33;;;;;;;14.90;7.80;;;;;;;20.05;68.50;99893.00;79549;1295;3011515;-75
2023/09/06 06:40:01;;;;;;;23.30;8.60;;;;;;;20.17;68.12;99892.05;78455;1294;3026234;-74
2023/09/06 06:42:27;;;;;;;14.50;7.60;;;;;;;20.25;67.93;99893.23;79616;1297;3013026;-74
2023/09/06 06:44:56;;;;;;;18.10;7.50;;;;;;;20.31;67.82;99890.36;79624;1297;3011660;-75
2023/09/06 06:47:24;;;;;;;11.40;7.60;;;;;;;20.41;67.29;99888.93;78367;1294;3052275;-75
2023/09/06 06:49:51;;;;;;;18.70;8.20;;;;;;;20.49;67.02;99886.73;79519;1298;3013611;-74
2023/09/06 06:52:17;;;;;;;20.00;8.20;;;;;;;20.54;66.90;99886.96;79640;1295;3011821;-74
2023/09/06 06:54:49;;;;;;;14.70;7.20;;;;;;;20.60;67.01;99886.37;78584;1297;3028262;-74
2023/09/06 06:57:15;;;;;;;15.80;7.50;;;;;;;20.73;66.48;99884.80;79732;1303;3011941;-75
2023/09/06 06:59:44;;;;;;;14.60;7.10;;;;;;;20.75;66.15;99889.59;79257;1294;3011925;-73
2023/09/06 07:02:12;;;;;;;17.70;7.40;;;;;;;20.79;65.92;99890.98;79703;1294;3013489;-74
2023/09/06 07:04:39;;;;;;;16.80;8.50;;;;;;;20.80;65.75;99893.58;79635;1294;3013472;-75
2023/09/06 07:07:07;;;;;;;15.10;7.80;;;;;;;20.69;65.99;99893.54;78414;1295;3050332;-74
2023/09/06 07:09:34;;;;;;;13.30;7.70;;;;;;;20.70;65.58;99890.63;79559;1308;3013154;-74
2023/09/06 07:12:01;;;;;;;13.40;7.80;;;;;;;20.74;65.22;99893.83;79584;1295;3013397;-74
2023/09/06 07:14:29;;;;;;;12.80;7.90;;;;;;;20.90;65.21;99889.09;78520;1298;3029008;-75
2023/09/06 07:16:55;;;;;;;12.20;6.90;;;;;;;20.90;64.85;99888.70;79626;1306;3018601;-74
2023/09/06 07:19:22;;;;;;;13.60;6.70;;;;;;;20.94;64.80;99882.40;79547;1299;3013118;-74
2023/09/06 07:21:50;;;;;;;15.00;6.10;;;;;;;21.15;64.56;99887.67;78553;1298;3026027;-76
2023/09/06 07:24:17;;;;;;;10.00;6.40;;;;;;;21.34;64.09;99882.27;79788;1298;3013461;-74
2023/09/06 07:26:45;;;;;;;13.20;6.90;;;;;;;21.48;63.67;99881.59;80042;1301;3011601;-72
2023/09/06 07:29:14;;;;;;;15.30;6.20;;;;;;;21.62;63.18;99878.63;78464;1300;3051481;-77
2023/09/06 07:31:40;;;;;;;15.00;6.70;;;;;;;21.65;62.09;99884.23;79538;1298;3013044;-75
2023/09/06 07:34:07;;;;;;;11.40;6.90;;;;;;;21.70;62.26;99889.09;79539;1294;3013008;-75
2023/09/06 07:36:35;;;;;;;12.00;6.60;;;;;;;21.48;62.37;99884.93;78703;1298;3028100;-77
2023/09/06 07:39:02;;;;;;;10.50;5.40;;;;;;;21.60;62.56;99882.90;79862;1298;3013323;-72
2023/09/06 07:41:28;;;;;;;13.90;6.30;;;;;;;21.46;62.31;99880.17;79589;1297;3011607;-75
2023/09/06 07:43:56;;;;;;;14.80;7.10;;;;;;;21.48;62.60;99876.55;78339;1294;3025347;-73
2023/09/06 07:46:28;;;;;;;14.70;5.90;;;;;;;21.69;62.34;99875.64;77580;1297;6028438;-70
2023/09/06 07:48:55;;;;;;;11.00;6.10;;;;;;;21.80;61.39;99875.77;78486;1297;3026946;-76
2023/09/06 07:51:23;;;;;;;10.70;6.40;;;;;;;21.85;61.29;99876.07;79608;1301;3012930;-76
2023/09/06 07:53:50;;;;;;;10.10;5.80;;;;;;;22.00;60.71;99872.45;79538;1295;3011567;-74
2023/09/06 07:56:17;;;;;;;13.50;6.30;;;;;;;22.21;60.54;99871.98;78433;1297;3050997;-70
2023/09/06 07:58:44;;;;;;;18.00;5.90;;;;;;;22.31;60.12;99869.70;79662;1298;3012867;-74
2023/09/06 08:01:10;;;;;;;13.90;6.10;;;;;;;22.50;59.70;99868.95;79595;1293;3011662;-76
2023/09/06 08:03:38;;;;;;;8.80;5.30;;;;;;;22.48;59.04;99873.61;78633;1297;3026224;-75
2023/09/06 08:06:05;;;;;;;9.30;5.50;;;;;;;22.50;58.81;99869.64;80116;1293;3013251;-76
2023/09/06 08:08:32;;;;;;;11.20;5.40;;;;;;;22.57;58.52;99863.61;79806;1294;3013627;-76
2023/09/06 08:11:01;;;;;;;10.60;5.90;;;;;;;22.70;58.03;99857.79;78469;1292;3026283;-76
2023/09/06 08:13:27;;;;;;;9.90;5.60;;;;;;;22.75;57.65;99853.70;79721;1294;3013104;-71
2023/09/06 08:15:54;;;;;;;12.70;5.60;;;;;;;22.92;57.56;99851.86;79559;1296;3011494;-74
2023/09/06 08:18:21;;;;;;;10.40;5.40;;;;;;;23.13;56.96;99852.70;78268;1298;3051786;-74
2023/09/06 08:20:48;;;;;;;8.80;5.10;;;;;;;23.30;56.49;99850.15;79595;1295;3018324;-75
2023/09/06 08:23:15;;;;;;;13.10;5.10;;;;;;;23.27;55.87;99850.10;79671;1295;3011540;-68
2023/09/06 08:25:43;;;;;;;14.60;5.50;;;;;;;23.25;55.84;99851.61;78382;1297;3026521;-74
2023/09/06 08:28:10;;;;;;;11.40;5.00;;;;;;;23.33;55.96;99848.80;79645;1299;3013497;-70
2023/09/06 08:30:38;;;;;;;10.10;5.60;;;;;;;23.22;55.55;99854.35;79589;1297;3011798;-75
2023/09/06 08:33:06;;;;;;;7.60;5.10;;;;;;;23.07;55.75;99853.88;78439;1297;3050559;-76
2023/09/06 08:35:33;;;;;;;11.20;5.00;;;;;;;23.02;55.63;99853.52;81536;1298;3013296;-77
2023/09/06 08:37:59;;;;;;;9.60;5.10;;;;;;;23.19;55.94;99844.60;79706;1298;3011858;-76
2023/09/06 08:40:29;;;;;;;10.60;5.70;;;;;;;23.46;55.45;99841.13;78403;1297;3025948;-77
2023/09/06 08:42:55;;;;;;;10.90;4.70;;;;;;;23.62;54.58;99842.08;79895;1294;3011659;-74
2023/09/06 08:45:22;;;;;;;10.30;5.40;;;;;;;23.79;54.28;99839.97;79562;1299;3013593;-70
2023/09/06 08:47:50;;;;;;;11.40;4.80;;;;;;;23.91;53.13;99837.98;78403;1294;3051360;-76
2023/09/06 08:50:17;;;;;;;13.00;4.90;;;;;;;24.12;52.84;99843.41;79684;1293;3013787;-71
2023/09/06 08:52:44;;;;;;;8.90;4.40;;;;;;;24.14;51.87;99846.77;79635;1292;3011879;-71
2023/09/06 08:55:12;;;;;;;8.70;4.50;;;;;;;24.05;51.42;99846.32;78462;1297;3026036;-74
2023/09/06 08:57:41;;;;;;;10.30;4.30;;;;;;;24.08;51.18;99846.18;79697;1298;3013286;-75
2023/09/06 09:00:11;;;;;;;8.30;4.00;;;;;;;24.14;51.02;99848.00;79053;1296;3013449;-77
2023/09/06 09:02:40;;;;;;;11.40;4.20;;;;;;;24.08;50.67;99846.54;79748;1297;3013766;-80
2023/09/06 09:05:10;;;;;;;7.40;4.20;;;;;;;24.22;50.84;99846.75;79176;1294;3012090;-72
2023/09/06 09:07:37;;;;;;;6.70;4.10;;;;;;;24.40;50.01;99845.40;79596;1297;3013164;-74
2023/09/06 09:10:08;;;;;;;5.30;3.40;;;;;;;24.39;48.91;99847.52;79640;1293;3011606;-69
2023/09/06 09:12:37;;;;;;;5.10;3.70;;;;;;;24.32;48.72;99846.47;78383;1293;3049427;-71
2023/09/06 09:15:07;;;;;;;5.30;4.10;;;;;;;24.20;49.19;99850.20;79822;1295;3012961;-76
2023/09/06 09:17:39;;;;;;;9.50;4.60;;;;;;;24.43;49.53;99842.39;79035;1300;3069700;-78
2023/09/06 09:20:06;;;;;;;11.80;5.10;;;;;;;24.72;49.20;99837.73;79667;1297;3013565;-76
2023/09/06 09:22:35;;;;;;;7.40;3.90;;;;;;;24.95;48.27;99842.27;78668;1293;3057316;-72
2023/09/06 09:25:14;;;;;;;9.10;4.10;;;;;;;24.85;47.44;99845.38;80597;1294;3019575;-74
2023/09/06 09:27:46;;;;;;;7.90;4.00;;;;;;;24.65;47.42;99838.58;78564;1294;3048413;-76
2023/09/06 09:30:14;;;;;;;6.40;3.80;;;;;;;24.69;47.39;99839.49;79714;1295;3011822;-77
2023/09/06 09:32:42;;;;;;;7.40;3.70;;;;;;;24.83;47.01;99841.13;78663;1297;3052405;-77
2023/09/06 09:35:10;;;;;;;9.10;4.50;;;;;;;24.89;46.05;99840.29;79543;1297;3019274;-71
2023/09/06 09:37:39;;;;;;;7.90;3.80;;;;;;;25.11;45.64;99844.14;79496;1292;3011673;-72
2023/09/06 09:40:18;;;;;;;6.00;3.60;;;;;;;25.26;44.87;99845.34;78363;1297;3048873;-73
2023/09/06 09:42:53;;;;;;;5.00;3.80;;;;;;;25.18;43.84;99844.93;78460;1294;3054250;-78
2023/09/06 09:45:23;;;;;;;14.10;3.80;;;;;;;25.06;44.92;99841.23;78932;1297;3050250;-77
2023/09/06 09:47:49;;;;;;;7.10;3.90;;;;;;;25.04;44.87;99841.20;80096;1297;3013640;-71
2023/09/06 09:50:16;;;;;;;6.00;4.20;;;;;;;25.09;44.92;99840.46;79566;1295;3013381;-72
2023/09/06 09:52:44;;;;;;;4.60;3.50;;;;;;;25.32;44.74;99842.70;78542;1294;3051436;-76
2023/09/06 09:55:15;;;;;;;4.40;3.30;;;;;;;25.40;43.84;99839.26;79532;1295;3013500;-73
2023/09/06 09:57:48;;;;;;;5.70;3.30;;;;;;;25.53;43.82;99842.00;79450;1293;3051745;31
2023/09/06 10:00:17;;;;;;;6.70;3.00;;;;;;;25.63;42.90;99840.17;79375;1303;3012873;-77
2023/09/06 10:02:45;;;;;;;5.70;3.50;;;;;;;25.78;43.13;99838.51;78110;1304;3053399;-71
2023/09/06 10:05:16;;;;;;;6.80;3.70;;;;;;;26.06;42.91;99838.95;79368;1298;3013126;-71
2023/09/06 10:07:44;;;;;;;5.30;3.30;;;;;;;26.19;41.62;99840.16;78155;1301;3050001;-73
2023/09/06 10:10:11;;;;;;;9.20;3.30;;;;;;;26.32;41.59;99836.73;79276;1298;3013975;-73
2023/09/06 10:12:42;;;;;;;6.30;3.30;;;;;;;26.52;41.47;99838.77;79338;1300;3011746;-75
2023/09/06 10:15:13;;;;;;;6.70;3.10;;;;;;;26.61;40.08;99841.83;78168;1301;3050629;-77
2023/09/06 10:17:41;;;;;;;4.00;3.00;;;;;;;26.40;39.77;99843.17;79689;1299;3013206;-76
2023/09/06 10:20:15;;;;;;;5.00;3.00;;;;;;;26.35;40.03;99834.55;78369;1300;3027757;-75
2023/09/06 10:22:46;;;;;;;7.20;2.70;;;;;;;26.42;39.88;99836.11;79108;1304;3011963;-74
2023/09/06 10:25:16;;;;;;;4.60;3.40;;;;;;;26.19;39.88;99833.48;79485;1301;3011611;-76
2023/09/06 10:27:48;;;;;;;7.60;2.90;;;;;;;26.40;40.05;99827.67;78056;1306;3051692;-77
2023/09/06 10:30:19;;;;;;;6.10;3.10;;;;;;;26.60;38.54;99833.48;79635;1298;3011768;-79
2023/09/06 10:32:47;;;;;;;8.20;2.90;;;;;;;26.71;38.07;99829.90;78302;1299;3048418;-77
2023/09/06 10:35:21;;;;;;;5.40;2.90;;;;;;;26.90;38.24;99820.83;79630;1301;3013679;-78
2023/09/06 10:38:15;;;;;;;8.40;3.20;;;;;;;27.12;38.01;99818.69;78378;1301;3052248;-73
2023/09/06 10:40:47;;;;;;;5.70;2.60;;;;;;;27.34;37.90;99816.53;78353;1301;3053328;-80
2023/09/06 10:43:14;;;;;;;4.40;3.10;;;;;;;27.46;37.41;99816.03;79559;1297;3013228;-73
2023/09/06 10:46:05;;;;;;;4.50;2.80;;;;;;;27.36;36.92;99821.40;78479;1299;3026281;-77
2023/09/06 10:48:33;;;;;;;4.60;2.40;;;;;;;27.35;36.96;99815.83;78141;1303;3056754;-76
2023/09/06 10:51:04;;;;;;;5.20;2.80;;;;;;;27.57;37.13;99814.99;79586;1301;3013012;-75
2023/09/06 10:53:38;;;;;;;3.80;2.80;;;;;;;27.63;36.98;99815.04;78441;1298;3049228;-74
2023/09/06 10:56:05;;;;;;;5.20;3.00;;;;;;;27.78;36.69;99816.89;79385;1304;3011720;-75
2023/09/06 10:58:35;;;;;;;5.40;2.70;;;;;;;27.64;36.09;99818.83;78350;1301;3051773;-81
2023/09/06 11:01:18;;;;;;;7.30;2.60;;;;;;;27.53;36.02;99815.17;79239;1299;3013326;-78
2023/09/06 11:03:54;;;;;;;5.80;2.70;;;;;;;27.54;35.71;99811.52;78033;1303;3056468;-76
2023/09/06 11:06:24;;;;;;;3.70;2.50;;;;;;;27.56;35.66;99814.45;78704;1303;3012928;-76
2023/09/06 11:08:51;;;;;;;4.10;2.60;;;;;;;27.14;35.97;99820.16;79249;1298;3013700;-77
2023/09/06 11:11:17;;;;;;;7.10;2.70;;;;;;;26.99;36.53;99810.80;79396;1298;3011571;-80
2023/09/06 11:13:45;;;;;;;5.20;2.70;;;;;;;27.14;36.72;99809.24;78131;1300;3052169;-76
2023/09/06 11:16:13;;;;;;;11.30;3.20;;;;;;;27.40;36.24;99802.02;79382;1299;3013562;-78
2023/09/06 11:18:47;;;;;;;6.10;2.60;;;;;;;27.51;35.88;99801.91;79243;1305;3013707;-75
2023/09/06 11:21:18;;;;;;;7.00;3.00;;;;;;;27.66;35.87;99802.80;78228;1301;3056992;-73